LSGG Airport Information

Runway Information
Runway 05 Length 12795 ft width 164 ft
Elevation 1411 ft Threshold 1082 ft Heading 46
Runway 23 Length 12795 ft Width 164 ft
Elevation 1365 ft Threshold 0 ft Heading 226
Runway 05L Length 2700 ft width 98 ft
Elevation 1378 ft Threshold 613 ft Heading 46
Runway 23R Length 2700 ft Width 98 ft
Elevation 1393 ft Threshold 994 ft Heading 226
Airport Frequencies
Type APP Name APP Frequency 120.3 MHZ
Type ARR Name ARR Frequency 136.25 MHZ
Type ATIS Name ATIS Frequency 135.575 MHZ
Type DEP Name DEP Frequency 119.525 MHZ
Type GND Name GND Frequency 121.675 MHZ
Type GTE Name APN Frequency 121.75 MHZ
Type TWR Name TWR Frequency 118.7 MHZ
Airport Navaids
Type NDB Name Gland Frequency 375 KHZ
Type VOR-DME Name Geneva Cointrin Frequency 115750 KHZ
Type VOR-DME Name Passeiry Frequency 116600 KHZ
Airport Weather Information & NOTAM
ADDS - METARS form results

(1445 UTC 28 May 2020)
Data provider http://aviationweather.gov/metar/data/
 
METAR text: LSGG 281420Z 04011KT 9999 FEW060 24/06 Q1024 NOSIG
Conditions at: LSGG (GENEVA/COINTRIN , CH) observed 1420 UTC 28 May 2020
Temperature: 24.0°C (75°F)
Dewpoint: 6.0°C (43°F) [RH = 31%]
Pressure (altimeter): 30.24 inches Hg (1024.0 mb)
Winds: from the NE (40 degrees) at 13 MPH (11 knots; 5.7 m/s)
Visibility: 6 or more miles (10+ km)
Ceiling: at least 12,000 feet AGL
Clouds: few clouds at 6000 feet AGL
Weather: no significant weather observed at this time

METAR text: LSGG 281350Z 05011KT 020V090 9999 FEW060 24/06 Q1024 NOSIG
Conditions at: LSGG (GENEVA/COINTRIN , CH) observed 1350 UTC 28 May 2020
Temperature: 24.0°C (75°F)
Dewpoint: 6.0°C (43°F) [RH = 31%]
Pressure (altimeter): 30.24 inches Hg (1024.0 mb)
Winds: from the NE (50 degrees) at 13 MPH (11 knots; 5.7 m/s)
Visibility: 6 or more miles (10+ km)
Ceiling: at least 12,000 feet AGL
Clouds: few clouds at 6000 feet AGL
Weather: no significant weather observed at this time

Forecast for: LSGG (GENEVA/COINTRIN , CH)
Text: TAF LSGG 281425Z 2815/2921 04012KT 9999 FEW060 TX24/2815Z TN11/2905Z TX21/2915Z
Forecast period: 1500 UTC 28 May 2020 to 0800 UTC 29 May 2020
Forecast type: FROM: standard forecast or significant change
Winds: from the NE (40 degrees) at 14 MPH (12 knots; 6.2 m/s)
Visibility: 6 or more miles 10+ km)
Ceiling: at least 12,000 feet AGL
Clouds: few clouds at 6000 feet AGL
Weather: no significant weather forecast for this period
Text: BECMG 2908/2910 04015G25KT
Forecast period: 0800 to 2100 UTC 29 May 2020
Forecast type: BECOMING: Conditions expected to become as follows by 1000 UTC 29 May 2020
Winds: from the NE (40 degrees) at 17 MPH (15 knots; 7.7 m/s)
gusting to 29 MPH (25 knots; 12.9 m/s)
Visibility: 6 or more miles 10+ km)
Ceiling: at least 12,000 feet AGL
Clouds: few clouds at 6000 feet AGL
Weather: no significant weather forecast for this period